createdAt,value
2022-08-21T00:02:19.806Z,101890.91
2022-08-21T00:04:54.543Z,101887.38
2022-08-21T00:07:25.301Z,101891.59
2022-08-21T00:09:52.664Z,101889.66
2022-08-21T00:12:19.509Z,101884.03
2022-08-21T00:14:46.034Z,101896.44
2022-08-21T00:17:13.202Z,101888.94
2022-08-21T00:19:40.796Z,101888.78
2022-08-21T00:22:07.299Z,101888.63
2022-08-21T00:24:33.743Z,101886.22
2022-08-21T00:27:00.436Z,101883.41
2022-08-21T00:29:26.948Z,101886.13
2022-08-21T00:31:53.542Z,101879.28
2022-08-21T00:34:20.131Z,101883.31
2022-08-21T00:36:46.592Z,101884.13
2022-08-21T00:39:13.141Z,101874.19
2022-08-21T00:41:40.454Z,101876.38
2022-08-21T00:44:09.120Z,101874.06
2022-08-21T00:46:37.432Z,101874.91
2022-08-21T00:49:05.075Z,101875.09
2022-08-21T00:51:56.382Z,101877.28
2022-08-21T00:54:26.645Z,101878.38
2022-08-21T00:57:00.701Z,101889.34
2022-08-21T00:59:28.870Z,101874.56
2022-08-21T01:01:55.438Z,101880.59
2022-08-21T01:04:26.935Z,101879.41
2022-08-21T01:06:53.731Z,101878.22
2022-08-21T01:09:20.866Z,101875.66
2022-08-21T01:11:48.123Z,101867.50
2022-08-21T01:14:16.010Z,101878.69
2022-08-21T01:16:45.756Z,101867.44
2022-08-21T01:19:13.155Z,101868.69
2022-08-21T01:21:39.639Z,101862.56
2022-08-21T01:24:06.724Z,101860.75
2022-08-21T01:26:35.600Z,101870.34
2022-08-21T01:29:12.761Z,101871.19
2022-08-21T01:31:39.708Z,101874.44
2022-08-21T01:34:07.294Z,101872.81
2022-08-21T01:36:34.764Z,101873.56
2022-08-21T01:39:01.531Z,101864.09
2022-08-21T01:41:27.985Z,101869.09
2022-08-21T01:43:54.461Z,101871.69
2022-08-21T01:46:21.336Z,101866.00
2022-08-21T01:48:47.844Z,101866.19
2022-08-21T01:51:14.395Z,101866.47
2022-08-21T01:53:41.473Z,101861.75
2022-08-21T01:56:12.628Z,101866.34
2022-08-21T01:58:42.066Z,101860.13
2022-08-21T02:01:10.466Z,101866.63
2022-08-21T02:03:37.967Z,101864.53
2022-08-21T02:06:05.535Z,101865.34
2022-08-21T02:08:32.203Z,101863.50
2022-08-21T02:10:58.721Z,101856.94
2022-08-21T02:13:25.425Z,101852.56
2022-08-21T02:15:51.945Z,101851.38
2022-08-21T02:18:19.200Z,101841.72
2022-08-21T02:20:48.035Z,101846.81
2022-08-21T02:23:15.779Z,101846.44
2022-08-21T02:25:42.537Z,101847.91
2022-08-21T02:28:14.785Z,101845.88
2022-08-21T02:30:46.136Z,101847.34
2022-08-21T02:33:13.395Z,101840.22
2022-08-21T02:35:44.742Z,101833.91
2022-08-21T02:38:15.209Z,101835.13
2022-08-21T02:40:48.169Z,101837.78
2022-08-21T02:43:19.444Z,101832.63
2022-08-21T02:45:47.180Z,101831.16
2022-08-21T02:48:17.333Z,101835.66
2022-08-21T02:50:49.843Z,101828.53
2022-08-21T02:53:17.633Z,101825.06
2022-08-21T02:55:50.027Z,101823.22
2022-08-21T02:58:19.716Z,101820.78
2022-08-21T03:00:46.787Z,101820.97
2022-08-21T03:03:15.616Z,101820.97
2022-08-21T03:05:43.793Z,101814.00
2022-08-21T03:08:12.940Z,101814.13
2022-08-21T03:10:45.477Z,101813.22
2022-08-21T03:13:12.616Z,101817.03
2022-08-21T03:15:41.001Z,101813.31
2022-08-21T03:18:07.863Z,101814.69
2022-08-21T03:20:36.771Z,101813.41
2022-08-21T03:23:12.466Z,101812.59
2022-08-21T03:25:41.232Z,101811.94
2022-08-21T03:28:12.976Z,101810.13
2022-08-21T03:30:44.534Z,101805.84
2022-08-21T03:33:13.060Z,101818.72
2022-08-21T03:35:43.925Z,101809.97
2022-08-21T03:38:11.193Z,101801.63
2022-08-21T03:40:37.765Z,101810.41
2022-08-21T03:43:04.423Z,101811.22
2022-08-21T03:45:31.348Z,101807.75
2022-08-21T03:48:01.233Z,101806.09
2022-08-21T03:50:32.239Z,101803.44
2022-08-21T03:53:01.280Z,101805.28
2022-08-21T03:55:27.928Z,101804.47
2022-08-21T03:57:54.585Z,101801.16
2022-08-21T04:00:22.146Z,101806.66
2022-08-21T04:02:48.643Z,101803.19
2022-08-21T04:05:27.982Z,101803.34
2022-08-21T04:08:00.078Z,101814.97
2022-08-21T04:10:29.077Z,101811.84
2022-08-21T04:12:56.433Z,101809.09
2022-08-21T04:15:25.122Z,101812.16
2022-08-21T04:17:51.917Z,101812.88
2022-08-21T04:20:20.321Z,101804.78
2022-08-21T04:22:46.848Z,101809.97
2022-08-21T04:25:14.829Z,101808.06
2022-08-21T04:27:42.121Z,101811.06
2022-08-21T04:30:10.789Z,101809.34
2022-08-21T04:32:38.885Z,101812.94
2022-08-21T04:35:11.283Z,101801.91
2022-08-21T04:37:41.585Z,101806.84
2022-08-21T04:40:11.606Z,101809.69
2022-08-21T04:42:55.560Z,101806.38
2022-08-21T04:45:30.003Z,101808.06
2022-08-21T04:48:00.483Z,101800.13
2022-08-21T04:50:32.354Z,101796.63
2022-08-21T04:52:59.764Z,101800.28
2022-08-21T04:55:28.831Z,101801.91
2022-08-21T04:57:57.556Z,101802.56
2022-08-21T05:00:26.036Z,101809.84
2022-08-21T05:02:57.275Z,101811.03
2022-08-21T05:05:24.930Z,101810.69
2022-08-21T05:07:53.080Z,101811.97
2022-08-21T05:10:23.503Z,101819.00
2022-08-21T05:12:50.358Z,101818.28
2022-08-21T05:15:18.116Z,101823.84
2022-08-21T05:17:53.608Z,101826.78
2022-08-21T05:20:27.314Z,101828.75
2022-08-21T05:22:53.733Z,101833.66
2022-08-21T05:25:22.214Z,101834.75
2022-08-21T05:27:52.039Z,101837.03
2022-08-21T05:30:20.069Z,101838.31
2022-08-21T05:32:47.407Z,101833.69
2022-08-21T05:35:14.603Z,101833.50
2022-08-21T05:37:41.314Z,101838.06
2022-08-21T05:40:21.295Z,101829.41
2022-08-21T05:42:54.003Z,101834.31
2022-08-21T05:45:41.620Z,101840.06
2022-08-21T05:48:10.600Z,101833.22
2022-08-21T05:50:38.813Z,101833.47
2022-08-21T05:53:07.068Z,101836.78
2022-08-21T05:55:34.403Z,101836.22
2022-08-21T05:58:00.890Z,101834.84
2022-08-21T06:00:27.556Z,101834.09
2022-08-21T06:02:54.068Z,101830.06
2022-08-21T06:05:36.456Z,101825.84
2022-08-21T06:08:03.859Z,101826.94
2022-08-21T06:10:30.337Z,101828.84
2022-08-21T06:12:56.854Z,101828.09
2022-08-21T06:15:23.685Z,101840.59
2022-08-21T06:17:50.225Z,101830.06
2022-08-21T06:20:16.747Z,101834.59
2022-08-21T06:22:43.278Z,101827.53
2022-08-21T06:25:10.343Z,101828.84
2022-08-21T06:27:37.208Z,101834.22
2022-08-21T06:30:06.465Z,101827.94
2022-08-21T06:32:33.038Z,101830.50
2022-08-21T06:35:00.032Z,101825.06
2022-08-21T06:37:26.616Z,101827.75
2022-08-21T06:39:53.211Z,101823.13
2022-08-21T06:42:19.974Z,101825.84
2022-08-21T06:44:48.763Z,101825.69
2022-08-21T06:47:15.466Z,101830.22
2022-08-21T06:49:42.228Z,101828.88
2022-08-21T06:52:13.528Z,101828.72
2022-08-21T06:54:41.331Z,101824.69
2022-08-21T06:57:08.391Z,101834.38
2022-08-21T06:59:35.221Z,101829.34
2022-08-21T07:02:01.817Z,101827.75
2022-08-21T07:04:28.623Z,101826.59
2022-08-21T07:06:55.151Z,101826.63
2022-08-21T07:09:24.670Z,101822.34
2022-08-21T07:11:54.619Z,101823.00
2022-08-21T07:14:21.688Z,101822.44
2022-08-21T07:16:49.352Z,101818.13
2022-08-21T07:19:15.959Z,101818.72
2022-08-21T07:21:42.713Z,101816.94
2022-08-21T07:24:09.867Z,101809.75
2022-08-21T07:26:36.680Z,101815.69
2022-08-21T07:29:04.066Z,101817.53
2022-08-21T07:31:30.689Z,101816.72
2022-08-21T07:33:57.255Z,101819.56
2022-08-21T07:36:24.415Z,101817.72
2022-08-21T07:38:52.782Z,101818.94
2022-08-21T07:41:29.500Z,101814.41
2022-08-21T07:43:58.390Z,101815.44
2022-08-21T07:46:26.090Z,101817.25
2022-08-21T07:48:53.604Z,101833.22
2022-08-21T07:51:24.526Z,101816.59
2022-08-21T07:53:53.220Z,101813.91
2022-08-21T07:56:20.316Z,101823.50
2022-08-21T07:58:47.445Z,101823.53
2022-08-21T08:01:14.706Z,101829.88
2022-08-21T08:03:41.936Z,101820.19
2022-08-21T08:06:13.039Z,101823.66
2022-08-21T08:08:41.616Z,101823.63
2022-08-21T08:11:11.864Z,101818.47
2022-08-21T08:13:46.945Z,101822.78
2022-08-21T08:16:14.064Z,101817.19
2022-08-21T08:18:42.609Z,101809.97
2022-08-21T08:21:10.563Z,101816.50
2022-08-21T08:23:37.085Z,101811.94
2022-08-21T08:26:03.727Z,101808.41
2022-08-21T08:28:32.589Z,101801.63
2022-08-21T08:31:01.283Z,101806.25
2022-08-21T08:33:28.495Z,101816.03
2022-08-21T08:35:55.691Z,101810.50
2022-08-21T08:38:24.864Z,101814.97
2022-08-21T08:41:14.439Z,101812.94
2022-08-21T08:43:45.349Z,101816.94
2022-08-21T08:46:17.633Z,101827.28
2022-08-21T08:48:56.808Z,101812.63
2022-08-21T08:51:38.616Z,101806.13
2022-08-21T08:54:12.284Z,101807.63
2022-08-21T08:56:39.414Z,101808.88
2022-08-21T08:59:27.115Z,101807.03
2022-08-21T09:01:53.825Z,101804.69
2022-08-21T09:04:25.371Z,101806.66
2022-08-21T09:07:06.882Z,101804.16
2022-08-21T09:09:45.837Z,101804.41
2022-08-21T09:12:48.980Z,101800.22
2022-08-21T09:15:29.640Z,101801.09
2022-08-21T09:18:10.236Z,101795.88
2022-08-21T09:21:15.560Z,101790.88
2022-08-21T09:23:47.583Z,101790.97
2022-08-21T09:26:21.433Z,101794.44
2022-08-21T09:28:52.663Z,101790.69
2022-08-21T09:31:35.225Z,101792.81
2022-08-21T09:34:05.497Z,101794.91
2022-08-21T09:36:52.318Z,101795.97
2022-08-21T09:39:27.515Z,101800.81
2022-08-21T09:42:05.040Z,101806.16
2022-08-21T09:44:34.598Z,101802.81
2022-08-21T09:47:01.539Z,101806.78
2022-08-21T09:49:33.259Z,101809.34
2022-08-21T09:52:01.824Z,101803.53
2022-08-21T09:54:35.511Z,101798.13
2022-08-21T09:57:34.335Z,101802.22
2022-08-21T10:00:31.497Z,101797.19
2022-08-21T10:03:19.861Z,101795.44
2022-08-21T10:05:58.398Z,101795.13
2022-08-21T10:08:28.204Z,101790.72
2022-08-21T10:11:17.027Z,101793.03
2022-08-21T10:13:46.571Z,101795.13
2022-08-21T10:16:31.879Z,101797.41
2022-08-21T10:19:29.947Z,101794.56
2022-08-21T10:22:33.667Z,101796.34
2022-08-21T10:25:20.738Z,101782.34
2022-08-21T10:28:21.360Z,101795.06
2022-08-21T10:30:57.072Z,101792.03
2022-08-21T10:33:47.896Z,101789.19
2022-08-21T10:36:21.332Z,101782.53
2022-08-21T10:42:13.586Z,101774.31
2022-08-21T10:45:14.342Z,101776.91
2022-08-21T10:47:58.032Z,101761.94
2022-08-21T10:50:35.768Z,101771.31
2022-08-21T10:53:05.249Z,101765.25
2022-08-21T10:55:42.083Z,101775.53
2022-08-21T10:58:19.785Z,101762.13
2022-08-21T11:00:51.646Z,101755.25
2022-08-21T11:03:45.780Z,101758.34
2022-08-21T11:06:21.724Z,101752.84
2022-08-21T11:08:57.769Z,101758.22
2022-08-21T11:11:36.105Z,101767.03
2022-08-21T11:14:10.666Z,101764.56
2022-08-21T11:16:46.643Z,101763.53
2022-08-21T11:19:31.853Z,101759.69
2022-08-21T11:22:11.950Z,101748.91
2022-08-21T11:24:53.423Z,101750.59
2022-08-21T11:27:26.207Z,101755.31
2022-08-21T11:29:58.781Z,101749.00
2022-08-21T11:32:39.156Z,101745.81
2022-08-21T11:35:35.378Z,101747.69
2022-08-21T11:38:14.469Z,101750.59
2022-08-21T11:41:13.068Z,101749.81
2022-08-21T11:43:43.932Z,101755.56
2022-08-21T11:46:25.641Z,101750.75
2022-08-21T11:48:52.090Z,101758.03
2022-08-21T11:51:23.840Z,101756.84
2022-08-21T11:53:58.738Z,101763.97
2022-08-21T11:56:32.571Z,101773.47
2022-08-21T11:59:05.891Z,101759.91
2022-08-21T12:01:38.983Z,101778.03
2022-08-21T12:04:10.898Z,101778.19
2022-08-21T12:06:41.332Z,101769.97
2022-08-21T12:09:28.756Z,101772.25
2022-08-21T12:12:06.366Z,101775.28
2022-08-21T12:14:50.606Z,101784.47
2022-08-21T12:17:35.836Z,101776.28
2022-08-21T12:20:18.284Z,101781.78
2022-08-21T12:22:53.281Z,101783.66
2022-08-21T12:25:22.153Z,101775.91
2022-08-21T12:27:53.552Z,101773.81
2022-08-21T12:30:44.363Z,101769.75
2022-08-21T12:33:25.970Z,101767.03
2022-08-21T12:36:02.233Z,101774.63
2022-08-21T12:38:33.019Z,101772.69
2022-08-21T12:41:10.641Z,101767.41
2022-08-21T12:43:57.556Z,101768.00
2022-08-21T12:46:35.227Z,101764.97
2022-08-21T12:49:09.283Z,101773.06
2022-08-21T12:52:10.614Z,101776.06
2022-08-21T12:54:44.647Z,101775.19
2022-08-21T12:57:29.068Z,101766.88
2022-08-21T13:00:03.908Z,101772.97
2022-08-21T13:02:40.441Z,101771.47
2022-08-21T13:05:12.609Z,101768.97
2022-08-21T13:07:46.576Z,101773.13
2022-08-21T13:10:30.428Z,101780.84
2022-08-21T13:13:00.795Z,101778.59
2022-08-21T13:15:33.875Z,101777.69
2022-08-21T13:18:05.062Z,101773.94
2022-08-21T13:20:38.939Z,101784.97
2022-08-21T13:23:23.118Z,101781.09
2022-08-21T13:25:49.893Z,101789.09
2022-08-21T13:28:16.612Z,101779.56
2022-08-21T13:30:47.544Z,101786.97
2022-08-21T13:33:17.343Z,101786.41
2022-08-21T13:36:02.451Z,101778.56
2022-08-21T13:38:33.990Z,101773.03
2022-08-21T13:41:05.391Z,101775.16
2022-08-21T13:43:34.639Z,101771.59
2022-08-21T13:46:03.676Z,101768.44
2022-08-21T13:48:35.410Z,101773.38
2022-08-21T13:51:02.805Z,101778.78
2022-08-21T13:53:37.478Z,101777.97
2022-08-21T13:56:05.755Z,101775.75
2022-08-21T13:58:59.380Z,101773.84
2022-08-21T14:01:32.973Z,101770.28
2022-08-21T14:04:08.571Z,101772.47
2022-08-21T14:06:38.512Z,101770.28
2022-08-21T14:09:27.750Z,101763.22
2022-08-21T14:11:56.677Z,101772.59
2022-08-21T14:14:36.244Z,101765.75
2022-08-21T14:17:11.215Z,101759.53
2022-08-21T14:19:51.473Z,101760.94
2022-08-21T14:22:49.371Z,101768.16
2022-08-21T14:25:37.729Z,101763.75
2022-08-21T14:28:32.877Z,101773.94
2022-08-21T14:31:13.615Z,101775.19
2022-08-21T14:33:40.828Z,101781.91
2022-08-21T14:36:07.672Z,101780.88
2022-08-21T14:38:38.604Z,101782.75
2022-08-21T14:41:19.026Z,101781.94
2022-08-21T14:43:47.251Z,101780.63
2022-08-21T14:46:21.357Z,101761.78
2022-08-21T14:48:47.895Z,101774.88
2022-08-21T14:51:14.783Z,101774.28
2022-08-21T14:53:41.626Z,101771.34
2022-08-21T14:56:08.626Z,101782.09
2022-08-21T14:58:41.830Z,101782.59
2022-08-21T15:01:11.483Z,101779.63
2022-08-21T15:03:39.411Z,101781.72
2022-08-21T15:06:07.888Z,101781.78
2022-08-21T15:08:35.064Z,101785.56
2022-08-21T15:11:13.595Z,101789.59
2022-08-21T15:13:41.953Z,101791.25
2022-08-21T15:16:10.868Z,101788.28
2022-08-21T15:18:37.400Z,101789.06
2022-08-21T15:21:04.070Z,101791.75
2022-08-21T15:23:30.769Z,101791.47
2022-08-21T15:25:58.614Z,101789.84
2022-08-21T15:28:26.554Z,101796.84
2022-08-21T15:31:00.101Z,101795.00
2022-08-21T15:33:26.577Z,101794.94
2022-08-21T15:35:53.232Z,101794.63
2022-08-21T15:38:20.202Z,101801.59
2022-08-21T15:40:51.962Z,101791.03
2022-08-21T15:43:31.711Z,101799.66
2022-08-21T15:46:02.552Z,101800.22
2022-08-21T15:48:29.851Z,101801.50
2022-08-21T15:50:56.392Z,101807.94
2022-08-21T15:53:22.837Z,101810.84
2022-08-21T15:55:49.338Z,101810.78
2022-08-21T15:58:17.408Z,101808.06
2022-08-21T16:00:45.564Z,101803.78
2022-08-21T16:03:17.487Z,101802.69
2022-08-21T16:05:49.507Z,101813.47
2022-08-21T16:08:16.215Z,101814.81
2022-08-21T16:10:42.926Z,101816.16
2022-08-21T16:13:24.260Z,101816.41
2022-08-21T16:15:51.117Z,101817.22
2022-08-21T16:18:19.090Z,101816.97
2022-08-21T16:20:45.680Z,101806.78
2022-08-21T16:23:12.215Z,101818.66
2022-08-21T16:25:40.068Z,101816.53
2022-08-21T16:28:09.389Z,101814.34
2022-08-21T16:30:38.764Z,101822.56
2022-08-21T16:33:06.508Z,101814.13
2022-08-21T16:35:33.445Z,101818.88
2022-08-21T16:38:00.183Z,101818.94
2022-08-21T16:40:27.306Z,101811.09
2022-08-21T16:42:54.071Z,101823.25
2022-08-21T16:45:21.850Z,101813.75
2022-08-21T16:47:48.313Z,101823.84
2022-08-21T16:50:19.361Z,101819.75
2022-08-21T16:52:45.792Z,101817.50
2022-08-21T16:55:12.459Z,101811.53
2022-08-21T16:57:39.048Z,101811.53
2022-08-21T17:00:14.033Z,101811.50
2022-08-21T17:02:53.497Z,101814.84
2022-08-21T17:05:20.127Z,101818.34
2022-08-21T17:07:47.249Z,101822.53
2022-08-21T17:10:15.458Z,101819.28
2022-08-21T17:12:44.405Z,101820.84
2022-08-21T17:15:24.438Z,101814.00
2022-08-21T17:17:51.289Z,101818.25
2022-08-21T17:20:18.481Z,101812.25
2022-08-21T17:22:44.922Z,101815.00
2022-08-21T17:25:11.736Z,101819.06
2022-08-21T17:27:39.837Z,101817.88
2022-08-21T17:30:07.901Z,101814.09
2022-08-21T17:32:34.460Z,101814.25
2022-08-21T17:35:00.952Z,101821.75
2022-08-21T17:37:29.310Z,101818.16
2022-08-21T17:39:56.535Z,101826.41
2022-08-21T17:42:25.094Z,101829.00
2022-08-21T17:44:54.118Z,101822.00
2022-08-21T17:47:20.754Z,101813.88
2022-08-21T17:49:47.777Z,101819.94
2022-08-21T17:52:14.306Z,101811.22
2022-08-21T17:54:41.271Z,101817.81
2022-08-21T17:57:13.912Z,101817.41
2022-08-21T17:59:40.473Z,101821.00
2022-08-21T18:02:09.783Z,101816.97
2022-08-21T18:04:46.470Z,101819.53
2022-08-21T18:07:30.786Z,101824.34
2022-08-21T18:09:59.848Z,101824.69
2022-08-21T18:12:26.611Z,101827.91
2022-08-21T18:14:53.117Z,101819.06
2022-08-21T18:17:22.306Z,101825.97
2022-08-21T18:19:49.683Z,101825.84
2022-08-21T18:22:16.218Z,101820.19
2022-08-21T18:24:43.763Z,101824.63
2022-08-21T18:27:11.348Z,101820.66
2022-08-21T18:29:47.484Z,101821.63
2022-08-21T18:32:30.352Z,101823.72
2022-08-21T18:35:00.546Z,101819.91
2022-08-21T18:37:27.256Z,101825.72
2022-08-21T18:39:53.817Z,101822.97
2022-08-21T18:42:20.425Z,101820.19
2022-08-21T18:45:00.705Z,101818.09
2022-08-21T18:47:33.675Z,101817.06
2022-08-21T18:50:00.581Z,101821.03
2022-08-21T18:52:28.469Z,101827.88
2022-08-21T18:54:55.419Z,101826.00
2022-08-21T18:57:24.323Z,101833.09
2022-08-21T18:59:51.040Z,101831.59
2022-08-21T19:02:17.887Z,101826.59
2022-08-21T19:04:45.191Z,101840.22
2022-08-21T19:07:17.048Z,101832.50
2022-08-21T19:09:56.946Z,101832.63
2022-08-21T19:12:31.165Z,101836.13
2022-08-21T19:14:58.670Z,101839.63
2022-08-21T19:17:25.953Z,101843.41
2022-08-21T19:19:52.790Z,101837.69
2022-08-21T19:22:19.683Z,101844.06
2022-08-21T19:24:49.834Z,101841.63
2022-08-21T19:27:17.089Z,101847.09
2022-08-21T19:29:43.878Z,101836.72
2022-08-21T19:32:10.962Z,101844.69
2022-08-21T19:34:39.707Z,101841.81
2022-08-21T19:37:06.522Z,101842.28
2022-08-21T19:39:38.158Z,101848.22
2022-08-21T19:42:06.580Z,101850.53
2022-08-21T19:44:37.721Z,101854.06
2022-08-21T19:47:12.668Z,101849.56
2022-08-21T19:49:50.825Z,101850.28
2022-08-21T19:52:17.910Z,101849.28
2022-08-21T19:54:44.730Z,101856.47
2022-08-21T19:57:12.091Z,101856.97
2022-08-21T19:59:40.680Z,101854.16
2022-08-21T20:02:09.317Z,101850.28
2022-08-21T20:04:36.664Z,101856.66
2022-08-21T20:07:04.510Z,101854.22
2022-08-21T20:09:36.276Z,101846.91
2022-08-21T20:12:10.064Z,101856.97
2022-08-21T20:14:43.967Z,101859.88
2022-08-21T20:17:13.062Z,101866.47
2022-08-21T20:19:42.648Z,101862.38
2022-08-21T20:22:10.364Z,101859.13
2022-08-21T20:24:36.895Z,101863.84
2022-08-21T20:29:52.193Z,101863.31
2022-08-21T20:32:18.759Z,101868.06
2022-08-21T20:34:45.576Z,101863.81
2022-08-21T20:37:12.472Z,101865.66
2022-08-21T20:39:39.044Z,101865.66
2022-08-21T20:42:09.018Z,101861.56
2022-08-21T20:44:35.893Z,101864.66
2022-08-21T20:47:08.654Z,101862.84
2022-08-21T20:49:44.511Z,101860.59
2022-08-21T20:55:03.779Z,101865.19
2022-08-21T20:57:45.790Z,101854.41
2022-08-21T21:00:21.789Z,101862.88
2022-08-21T21:03:17.164Z,101860.69
2022-08-21T21:05:55.605Z,101867.28
2022-08-21T21:08:28.416Z,101870.78
2022-08-21T21:14:12.367Z,101864.25
2022-08-21T21:17:02.122Z,101865.47
2022-08-21T21:19:47.576Z,101867.56
2022-08-21T21:22:18.353Z,101876.00
2022-08-21T21:25:24.905Z,101866.78
2022-08-21T21:28:00.978Z,101872.13
2022-08-21T21:30:36.499Z,101866.97
2022-08-21T21:33:04.058Z,101865.09
2022-08-21T21:36:07.643Z,101873.09
2022-08-21T21:38:51.708Z,101871.69
2022-08-21T21:41:35.355Z,101867.59
2022-08-21T21:44:16.383Z,101867.59
2022-08-21T21:47:02.767Z,101876.00
2022-08-21T21:49:43.605Z,101870.00
2022-08-21T21:52:40.867Z,101869.19
2022-08-21T21:55:23.668Z,101873.72
2022-08-21T21:58:08.922Z,101873.94
2022-08-21T22:00:51.983Z,101873.09
2022-08-21T22:03:27.791Z,101873.72
2022-08-21T22:06:12.454Z,101871.06
2022-08-21T22:08:48.740Z,101873.72
2022-08-21T22:11:32.275Z,101868.63
2022-08-21T22:14:10.627Z,101865.09
2022-08-21T22:19:37.472Z,101867.66
2022-08-21T22:22:24.029Z,101865.63
2022-08-21T22:24:53.928Z,101865.06
2022-08-21T22:27:32.676Z,101865.25
2022-08-21T22:30:02.247Z,101869.19
2022-08-21T22:32:42.755Z,101861.22
2022-08-21T22:35:20.653Z,101869.00
2022-08-21T22:37:56.646Z,101858.97
2022-08-21T22:40:34.994Z,101861.84
2022-08-21T22:43:07.700Z,101870.44
2022-08-21T22:45:57.388Z,101868.81
2022-08-21T22:48:28.461Z,101858.78
2022-08-21T22:51:29.928Z,101858.16
2022-08-21T22:54:00.099Z,101862.69
2022-08-21T22:56:38.537Z,101864.94
2022-08-21T22:59:10.323Z,101862.47
2022-08-21T23:01:43.356Z,101862.88
2022-08-21T23:04:23.200Z,101865.94
2022-08-21T23:06:57.524Z,101865.75
2022-08-21T23:09:27.390Z,101863.09
2022-08-21T23:11:56.673Z,101860.63
2022-08-21T23:14:24.731Z,101860.47
2022-08-21T23:17:03.599Z,101858.63
2022-08-21T23:19:34.459Z,101855.53
2022-08-21T23:22:10.714Z,101863.13
2022-08-21T23:25:04.597Z,101857.56
2022-08-21T23:27:59.909Z,101862.91
2022-08-21T23:30:40.231Z,101865.97
2022-08-21T23:33:12.835Z,101855.56
2022-08-21T23:36:10.509Z,101856.59
2022-08-21T23:38:51.256Z,101856.38
2022-08-21T23:41:38.644Z,101854.34
2022-08-21T23:44:17.736Z,101854.97
2022-08-21T23:46:47.204Z,101853.94
2022-08-21T23:49:19.719Z,101849.84
2022-08-21T23:52:10.913Z,101840.00
2022-08-21T23:55:03.529Z,101849.84
2022-08-21T23:57:52.870Z,101847.19
